createdAt,value
2022-09-02T00:04:52.577Z,0
2022-09-02T00:10:15.503Z,0
2022-09-02T00:15:38.824Z,0
2022-09-02T00:21:01.422Z,0
2022-09-02T00:26:23.953Z,0
2022-09-02T00:31:46.764Z,0
2022-09-02T00:37:09.920Z,0
2022-09-02T00:42:32.468Z,0
2022-09-02T00:47:55.410Z,0
2022-09-02T00:53:18.887Z,0
2022-09-02T00:58:42.095Z,0
2022-09-02T01:04:04.620Z,0
2022-09-02T01:09:26.925Z,0
2022-09-02T01:14:49.572Z,0
2022-09-02T01:20:56.917Z,0
2022-09-02T01:26:25.562Z,0
2022-09-02T01:31:48.125Z,0
2022-09-02T01:37:11.206Z,0
2022-09-02T01:42:33.678Z,0
2022-09-02T01:47:55.867Z,0
2022-09-02T01:53:18.449Z,0
2022-09-02T01:58:41.384Z,0
2022-09-02T02:04:03.662Z,0
2022-09-02T02:09:26.927Z,0
2022-09-02T02:20:05.870Z,0
2022-09-02T02:25:28.415Z,0
2022-09-02T02:36:07.635Z,0
2022-09-02T02:41:30.049Z,0
2022-09-02T02:46:53.013Z,0
2022-09-02T02:52:16.177Z,0
2022-09-02T02:57:38.745Z,0
2022-09-02T03:03:01.824Z,0
2022-09-02T03:08:24.876Z,0
2022-09-02T03:13:47.770Z,0
2022-09-02T03:19:10.109Z,0
2022-09-02T03:24:33.096Z,0
2022-09-02T03:34:57.979Z,0
2022-09-02T03:40:20.556Z,0
2022-09-02T03:45:44.246Z,0
2022-09-02T03:51:08.178Z,0
2022-09-02T03:56:30.905Z,0
2022-09-02T04:01:53.651Z,0
2022-09-02T04:07:17.057Z,0
2022-09-02T04:12:39.670Z,0
2022-09-02T04:23:25.404Z,0
2022-09-02T04:28:47.986Z,0
2022-09-02T04:34:10.515Z,0
2022-09-02T04:39:33.574Z,0
2022-09-02T04:44:56.286Z,0
2022-09-02T04:50:19.240Z,0
2022-09-02T04:55:42.866Z,0.1
2022-09-02T05:01:07.068Z,0.1
2022-09-02T05:06:31.047Z,0.1
2022-09-02T05:11:56.509Z,0.1
2022-09-02T05:22:23.020Z,0.2
2022-09-02T05:27:47.208Z,0.2
2022-09-02T05:33:10.144Z,0.2
2022-09-02T05:38:38.317Z,0.2
2022-09-02T05:44:01.491Z,0.3
2022-09-02T05:54:29.568Z,0.3
2022-09-02T06:05:17.258Z,0.5
2022-09-02T06:10:40.476Z,0.7
2022-09-02T06:16:03.986Z,0.6
2022-09-02T06:21:27.925Z,0.6
2022-09-02T06:26:51.405Z,0.7
2022-09-02T06:32:20.380Z,0.8
2022-09-02T06:37:47.402Z,1
2022-09-02T06:43:12.887Z,1.1
2022-09-02T06:53:39.210Z,1.4
2022-09-02T06:59:03.574Z,1.6
2022-09-02T07:04:26.579Z,1.5
2022-09-02T07:09:49.879Z,1.2
2022-09-02T07:25:40.421Z,1.6
2022-09-02T07:31:03.317Z,1.1
2022-09-02T07:41:49.276Z,1.4
2022-09-02T07:47:11.859Z,3.2
2022-09-02T07:52:35.504Z,3.4
2022-09-02T07:57:58.604Z,2.2
2022-09-02T08:03:20.793Z,2.9
2022-09-02T08:08:44.500Z,4.2
2022-09-02T08:14:08.222Z,4.2
2022-09-02T08:19:41.218Z,4.3
2022-09-02T08:25:07.344Z,4.6
2022-09-02T08:30:30.261Z,4.9
2022-09-02T08:35:53.573Z,4.9
2022-09-02T08:41:16.100Z,5.3
2022-09-02T08:46:41.536Z,5.2
2022-09-02T08:52:42.100Z,5.5
2022-09-02T09:03:30.813Z,5.7
2022-09-02T09:08:53.593Z,5.7
2022-09-02T09:14:16.173Z,5.6
2022-09-02T09:19:39.053Z,5.7
2022-09-02T09:25:02.189Z,5.3
2022-09-02T09:35:56.924Z,5.9
2022-09-02T09:41:19.625Z,5.5
2022-09-02T09:46:59.744Z,5.9
2022-09-02T09:52:24.319Z,6
2022-09-02T10:02:50.460Z,6
2022-09-02T10:08:15.305Z,6.2
2022-09-02T10:13:38.608Z,6.5
2022-09-02T10:19:00.905Z,6.3
2022-09-02T10:24:31.185Z,6.6
2022-09-02T10:29:53.738Z,6.5
2022-09-02T10:35:16.329Z,7
2022-09-02T10:40:39.426Z,6.8
2022-09-02T10:46:02.572Z,6.6
2022-09-02T10:51:25.372Z,6.8
2022-09-02T10:56:47.854Z,7
2022-09-02T11:02:11.943Z,6.8
2022-09-02T11:07:34.633Z,6.6
2022-09-02T11:18:58.294Z,6.9
2022-09-02T11:24:20.876Z,7.2
2022-09-02T11:29:43.385Z,6.2
2022-09-02T11:35:05.968Z,6
2022-09-02T11:40:34.467Z,5.3
2022-09-02T11:45:59.152Z,2.8
2022-09-02T11:51:21.329Z,2.4
2022-09-02T11:56:46.373Z,2.6
2022-09-02T12:02:07.103Z,2.5
2022-09-02T12:07:29.884Z,5
2022-09-02T12:12:58.114Z,7.4
2022-09-02T12:18:21.771Z,2.3
2022-09-02T12:23:43.617Z,2.8
2022-09-02T12:29:06.705Z,5.9
2022-09-02T12:34:35.668Z,4.9
2022-09-02T12:39:58.277Z,3.1
2022-09-02T12:45:19.699Z,2.5
2022-09-02T12:56:04.806Z,7.6
2022-09-02T13:01:28.731Z,3.6
2022-09-02T13:06:52.202Z,7.5
2022-09-02T13:12:15.546Z,6.6
2022-09-02T13:17:38.049Z,2.2
2022-09-02T13:23:01.196Z,1.9
2022-09-02T13:28:23.972Z,1.9
2022-09-02T13:33:46.729Z,1.8
2022-09-02T13:39:09.004Z,2
2022-09-02T13:44:47.331Z,6.7
2022-09-02T13:50:11.193Z,6.4
2022-09-02T13:55:33.926Z,6
2022-09-02T14:01:01.226Z,6.2
2022-09-02T14:06:25.307Z,6.7
2022-09-02T14:11:47.867Z,5.2
2022-09-02T14:22:33.293Z,3.2
2022-09-02T14:27:55.782Z,6.4
2022-09-02T14:33:18.621Z,1.2
2022-09-02T14:38:39.433Z,4
2022-09-02T14:44:03.524Z,5.6
2022-09-02T14:49:25.503Z,1.2
2022-09-02T14:54:47.115Z,1.3
2022-09-02T15:05:20.670Z,0.6
2022-09-02T15:10:43.379Z,0.5
2022-09-02T15:16:05.699Z,0.4
2022-09-02T15:21:28.366Z,0.5
2022-09-02T15:26:50.887Z,0.4
2022-09-02T15:32:13.445Z,0.4
2022-09-02T15:37:35.817Z,0.4
2022-09-02T15:42:58.236Z,0.4
2022-09-02T15:48:20.932Z,0.4
2022-09-02T15:53:43.339Z,0.3
2022-09-02T16:04:28.517Z,0.3
2022-09-02T16:09:54.615Z,0.3
2022-09-02T16:15:17.260Z,0.2
2022-09-02T16:20:39.546Z,0.2
2022-09-02T16:26:02.189Z,0.2
2022-09-02T16:31:24.698Z,0.2
2022-09-02T16:36:47.713Z,0.2
2022-09-02T16:42:10.332Z,0.2
2022-09-02T16:47:33.014Z,0.2
2022-09-02T16:52:55.834Z,0.2
2022-09-02T16:58:18.386Z,0.2
2022-09-02T17:03:40.872Z,0.2
2022-09-02T17:09:04.839Z,0.2
2022-09-02T17:14:27.099Z,0.2
2022-09-02T17:19:49.684Z,0.2
2022-09-02T17:25:12.058Z,0.1
2022-09-02T17:30:34.313Z,0.1
2022-09-02T17:35:57.155Z,0.1
2022-09-02T17:46:41.911Z,0.1
2022-09-02T17:52:07.376Z,0.1
2022-09-02T17:57:30.299Z,0.1
2022-09-02T18:02:55.383Z,0.1
2022-09-02T18:08:18.425Z,0.1
2022-09-02T18:13:41.523Z,0
2022-09-02T18:19:04.358Z,0
2022-09-02T18:24:26.858Z,0
2022-09-02T18:29:49.379Z,0
2022-09-02T18:35:11.820Z,0
2022-09-02T18:40:41.718Z,0
2022-09-02T18:46:04.506Z,0
2022-09-02T18:51:27.574Z,0
2022-09-02T18:56:50.026Z,0
2022-09-02T19:02:14.379Z,0
2022-09-02T19:07:37.547Z,0
2022-09-02T19:12:59.899Z,0
2022-09-02T19:18:22.849Z,0
2022-09-02T19:23:45.888Z,0
2022-09-02T19:29:08.457Z,0
2022-09-02T19:34:30.810Z,0
2022-09-02T19:39:53.268Z,0
2022-09-02T19:45:16.703Z,0
2022-09-02T19:50:40.156Z,0
2022-09-02T19:56:02.563Z,0
2022-09-02T20:01:25.017Z,0
2022-09-02T20:06:51.725Z,0
2022-09-02T20:12:14.150Z,0
2022-09-02T20:17:36.703Z,0
2022-09-02T20:22:59.119Z,0
2022-09-02T20:28:21.711Z,0
2022-09-02T20:33:49.169Z,0
2022-09-02T20:39:14.599Z,0
2022-09-02T20:44:37.493Z,0
2022-09-02T20:49:59.587Z,0
2022-09-02T20:55:21.638Z,0
2022-09-02T21:00:44.335Z,0
2022-09-02T21:06:06.889Z,0
2022-09-02T21:11:29.164Z,0
2022-09-02T21:16:55.516Z,0
2022-09-02T21:22:17.916Z,0
2022-09-02T21:27:40.178Z,0
2022-09-02T21:33:02.645Z,0
2022-09-02T21:38:25.524Z,0
2022-09-02T21:43:48.900Z,0
2022-09-02T21:49:18.404Z,0
2022-09-02T21:54:41.217Z,0
2022-09-02T22:00:03.891Z,0
2022-09-02T22:05:26.465Z,0
2022-09-02T22:10:49.012Z,0
2022-09-02T22:16:14.518Z,0
2022-09-02T22:21:37.192Z,0
2022-09-02T22:26:59.718Z,0
2022-09-02T22:32:23.766Z,0
2022-09-02T22:37:46.045Z,0
2022-09-02T22:43:08.383Z,0
2022-09-02T22:48:51.405Z,0
2022-09-02T22:54:14.395Z,0
2022-09-02T22:59:36.775Z,0
2022-09-02T23:04:59.125Z,0
2022-09-02T23:10:21.740Z,0
2022-09-02T23:15:44.151Z,0
2022-09-02T23:21:07.962Z,0
2022-09-02T23:26:31.057Z,0
2022-09-02T23:31:53.531Z,0
2022-09-02T23:37:15.950Z,0
2022-09-02T23:42:39.495Z,0
2022-09-02T23:48:02.086Z,0
2022-09-02T23:53:24.610Z,0
